sensor_id;sensor_type;location;lat;lon;timestamp;temperature;humidity
44843;DHT22;31884;52.538;13.820;2023-05-16T00:01:38;10.30;99.90
44843;DHT22;31884;52.538;13.820;2023-05-16T00:04:03;10.30;99.90
44843;DHT22;31884;52.538;13.820;2023-05-16T00:06:30;10.30;99.90
44843;DHT22;31884;52.538;13.820;2023-05-16T00:08:56;10.30;99.90
44843;DHT22;31884;52.538;13.820;2023-05-16T00:11:21;10.30;99.90
44843;DHT22;31884;52.538;13.820;2023-05-16T00:13:47;10.30;99.90
44843;DHT22;31884;52.538;13.820;2023-05-16T00:16:13;10.30;99.90
44843;DHT22;31884;52.538;13.820;2023-05-16T00:18:39;10.30;99.90
44843;DHT22;31884;52.538;13.820;2023-05-16T00:21:05;10.30;99.90
44843;DHT22;31884;52.538;13.820;2023-05-16T00:23:31;10.30;99.90
44843;DHT22;31884;52.538;13.820;2023-05-16T00:25:56;10.30;99.90
44843;DHT22;31884;52.538;13.820;2023-05-16T00:28:22;10.30;99.90
44843;DHT22;31884;52.538;13.820;2023-05-16T00:30:48;10.30;99.90
44843;DHT22;31884;52.538;13.820;2023-05-16T00:33:13;10.30;99.90
44843;DHT22;31884;52.538;13.820;2023-05-16T00:35:39;10.30;99.90
44843;DHT22;31884;52.538;13.820;2023-05-16T00:38:04;10.30;99.90
44843;DHT22;31884;52.538;13.820;2023-05-16T00:40:30;10.40;99.90
44843;DHT22;31884;52.538;13.820;2023-05-16T00:42:56;10.30;99.90
44843;DHT22;31884;52.538;13.820;2023-05-16T00:45:22;10.30;99.90
44843;DHT22;31884;52.538;13.820;2023-05-16T00:47:49;10.30;99.90
44843;DHT22;31884;52.538;13.820;2023-05-16T00:50:15;10.30;99.90
44843;DHT22;31884;52.538;13.820;2023-05-16T00:52:41;10.30;99.90
44843;DHT22;31884;52.538;13.820;2023-05-16T00:55:07;10.30;99.90
44843;DHT22;31884;52.538;13.820;2023-05-16T00:57:36;10.40;99.90
44843;DHT22;31884;52.538;13.820;2023-05-16T01:00:03;10.40;99.90
44843;DHT22;31884;52.538;13.820;2023-05-16T01:02:29;10.40;99.90
44843;DHT22;31884;52.538;13.820;2023-05-16T01:04:55;10.40;99.90
44843;DHT22;31884;52.538;13.820;2023-05-16T01:07:21;10.30;99.90
44843;DHT22;31884;52.538;13.820;2023-05-16T01:09:47;10.30;99.90
44843;DHT22;31884;52.538;13.820;2023-05-16T01:15:12;10.30;99.90
44843;DHT22;31884;52.538;13.820;2023-05-16T01:18:08;10.20;99.90
44843;DHT22;31884;52.538;13.820;2023-05-16T01:20:55;10.20;99.90
44843;DHT22;31884;52.538;13.820;2023-05-16T01:26:10;10.00;99.90
44843;DHT22;31884;52.538;13.820;2023-05-16T01:28:37;10.00;99.90
44843;DHT22;31884;52.538;13.820;2023-05-16T01:31:03;9.90;99.90
44843;DHT22;31884;52.538;13.820;2023-05-16T01:33:29;9.90;99.90
44843;DHT22;31884;52.538;13.820;2023-05-16T01:36:15;9.90;99.90
44843;DHT22;31884;52.538;13.820;2023-05-16T01:39:00;9.90;99.90
44843;DHT22;31884;52.538;13.820;2023-05-16T01:44:05;9.90;99.90
44843;DHT22;31884;52.538;13.820;2023-05-16T01:46:37;9.90;99.90
44843;DHT22;31884;52.538;13.820;2023-05-16T01:49:22;9.90;99.90
44843;DHT22;31884;52.538;13.820;2023-05-16T01:51:53;9.90;99.90
44843;DHT22;31884;52.538;13.820;2023-05-16T01:54:20;9.90;99.90
44843;DHT22;31884;52.538;13.820;2023-05-16T01:56:52;9.90;99.90
44843;DHT22;31884;52.538;13.820;2023-05-16T01:59:20;9.90;99.90
44843;DHT22;31884;52.538;13.820;2023-05-16T02:01:46;9.90;99.90
44843;DHT22;31884;52.538;13.820;2023-05-16T02:04:12;10.00;99.90
44843;DHT22;31884;52.538;13.820;2023-05-16T02:06:40;10.00;99.90
44843;DHT22;31884;52.538;13.820;2023-05-16T02:09:05;10.00;99.90
44843;DHT22;31884;52.538;13.820;2023-05-16T02:11:31;10.10;99.90
44843;DHT22;31884;52.538;13.820;2023-05-16T02:13:56;10.10;99.90
44843;DHT22;31884;52.538;13.820;2023-05-16T02:16:22;10.20;99.90
44843;DHT22;31884;52.538;13.820;2023-05-16T02:18:47;10.30;99.90
44843;DHT22;31884;52.538;13.820;2023-05-16T02:21:13;10.40;99.90
44843;DHT22;31884;52.538;13.820;2023-05-16T02:23:38;10.50;99.90
44843;DHT22;31884;52.538;13.820;2023-05-16T02:26:04;10.60;99.90
44843;DHT22;31884;52.538;13.820;2023-05-16T02:28:29;10.70;99.90
44843;DHT22;31884;52.538;13.820;2023-05-16T02:30:59;10.80;99.90
44843;DHT22;31884;52.538;13.820;2023-05-16T02:33:26;10.90;99.90
44843;DHT22;31884;52.538;13.820;2023-05-16T02:35:52;11.00;99.90
44843;DHT22;31884;52.538;13.820;2023-05-16T02:38:18;11.10;99.90
44843;DHT22;31884;52.538;13.820;2023-05-16T02:40:48;11.20;99.90
44843;DHT22;31884;52.538;13.820;2023-05-16T02:43:14;11.20;99.90
44843;DHT22;31884;52.538;13.820;2023-05-16T02:45:39;11.30;99.90
44843;DHT22;31884;52.538;13.820;2023-05-16T02:48:05;11.30;99.90
44843;DHT22;31884;52.538;13.820;2023-05-16T02:50:31;11.30;99.90
44843;DHT22;31884;52.538;13.820;2023-05-16T02:52:57;11.40;99.90
44843;DHT22;31884;52.538;13.820;2023-05-16T02:55:24;11.40;99.90
44843;DHT22;31884;52.538;13.820;2023-05-16T02:57:50;11.50;99.90
44843;DHT22;31884;52.538;13.820;2023-05-16T03:00:16;11.50;99.90
44843;DHT22;31884;52.538;13.820;2023-05-16T03:02:42;11.50;99.90
44843;DHT22;31884;52.538;13.820;2023-05-16T03:05:09;11.60;99.90
44843;DHT22;31884;52.538;13.820;2023-05-16T03:07:34;11.60;99.90
44843;DHT22;31884;52.538;13.820;2023-05-16T03:10:00;11.60;99.90
44843;DHT22;31884;52.538;13.820;2023-05-16T03:12:25;11.70;99.90
44843;DHT22;31884;52.538;13.820;2023-05-16T03:14:51;11.70;99.90
44843;DHT22;31884;52.538;13.820;2023-05-16T03:17:16;11.70;99.90
44843;DHT22;31884;52.538;13.820;2023-05-16T03:19:42;11.70;99.90
44843;DHT22;31884;52.538;13.820;2023-05-16T03:22:07;11.70;99.90
44843;DHT22;31884;52.538;13.820;2023-05-16T03:24:33;11.70;99.90
44843;DHT22;31884;52.538;13.820;2023-05-16T03:26:58;11.70;99.90
44843;DHT22;31884;52.538;13.820;2023-05-16T03:29:24;11.70;99.90
44843;DHT22;31884;52.538;13.820;2023-05-16T03:31:51;11.70;99.90
44843;DHT22;31884;52.538;13.820;2023-05-16T03:34:17;11.70;99.90
44843;DHT22;31884;52.538;13.820;2023-05-16T03:36:42;11.70;99.90
44843;DHT22;31884;52.538;13.820;2023-05-16T03:39:08;11.70;99.90
44843;DHT22;31884;52.538;13.820;2023-05-16T03:41:34;11.70;99.90
44843;DHT22;31884;52.538;13.820;2023-05-16T03:43:59;11.70;99.90
44843;DHT22;31884;52.538;13.820;2023-05-16T03:46:25;11.70;99.90
44843;DHT22;31884;52.538;13.820;2023-05-16T03:48:50;11.70;99.90
44843;DHT22;31884;52.538;13.820;2023-05-16T03:51:16;11.70;99.90
44843;DHT22;31884;52.538;13.820;2023-05-16T03:53:41;11.60;99.90
44843;DHT22;31884;52.538;13.820;2023-05-16T03:56:07;11.70;99.90
44843;DHT22;31884;52.538;13.820;2023-05-16T03:58:32;11.60;99.90
44843;DHT22;31884;52.538;13.820;2023-05-16T04:00:58;11.60;99.90
44843;DHT22;31884;52.538;13.820;2023-05-16T04:03:23;11.60;99.90
44843;DHT22;31884;52.538;13.820;2023-05-16T04:05:53;11.60;99.90
44843;DHT22;31884;52.538;13.820;2023-05-16T04:08:19;11.60;99.90
44843;DHT22;31884;52.538;13.820;2023-05-16T04:10:45;11.70;99.90
44843;DHT22;31884;52.538;13.820;2023-05-16T04:13:10;11.70;99.90
44843;DHT22;31884;52.538;13.820;2023-05-16T04:15:36;11.70;99.90
44843;DHT22;31884;52.538;13.820;2023-05-16T04:18:01;11.70;99.90
44843;DHT22;31884;52.538;13.820;2023-05-16T04:20:27;11.70;99.90
44843;DHT22;31884;52.538;13.820;2023-05-16T04:22:52;11.80;99.90
44843;DHT22;31884;52.538;13.820;2023-05-16T04:25:18;11.80;99.90
44843;DHT22;31884;52.538;13.820;2023-05-16T04:27:43;11.90;99.90
44843;DHT22;31884;52.538;13.820;2023-05-16T04:30:10;11.80;99.90
44843;DHT22;31884;52.538;13.820;2023-05-16T04:32:36;11.90;99.90
44843;DHT22;31884;52.538;13.820;2023-05-16T04:35:02;12.00;99.90
44843;DHT22;31884;52.538;13.820;2023-05-16T04:37:27;12.00;99.90
44843;DHT22;31884;52.538;13.820;2023-05-16T04:39:53;12.00;99.90
44843;DHT22;31884;52.538;13.820;2023-05-16T04:42:19;12.00;99.90
44843;DHT22;31884;52.538;13.820;2023-05-16T04:44:45;12.00;99.90
44843;DHT22;31884;52.538;13.820;2023-05-16T04:47:12;12.00;99.90
44843;DHT22;31884;52.538;13.820;2023-05-16T04:49:38;12.00;99.90
44843;DHT22;31884;52.538;13.820;2023-05-16T04:52:05;12.00;99.90
44843;DHT22;31884;52.538;13.820;2023-05-16T04:54:32;11.90;99.90
44843;DHT22;31884;52.538;13.820;2023-05-16T04:56:57;12.00;99.90
44843;DHT22;31884;52.538;13.820;2023-05-16T04:59:23;12.00;99.90
44843;DHT22;31884;52.538;13.820;2023-05-16T05:01:48;12.00;99.90
44843;DHT22;31884;52.538;13.820;2023-05-16T05:04:14;11.90;99.90
44843;DHT22;31884;52.538;13.820;2023-05-16T05:06:39;11.90;99.90
44843;DHT22;31884;52.538;13.820;2023-05-16T05:09:05;11.90;99.90
44843;DHT22;31884;52.538;13.820;2023-05-16T05:11:31;11.90;99.90
44843;DHT22;31884;52.538;13.820;2023-05-16T05:13:57;11.90;99.90
44843;DHT22;31884;52.538;13.820;2023-05-16T05:16:22;11.90;99.90
44843;DHT22;31884;52.538;13.820;2023-05-16T05:18:48;11.90;99.90
44843;DHT22;31884;52.538;13.820;2023-05-16T05:21:13;11.90;99.90
44843;DHT22;31884;52.538;13.820;2023-05-16T05:23:39;11.90;99.90
44843;DHT22;31884;52.538;13.820;2023-05-16T05:26:05;11.90;99.90
44843;DHT22;31884;52.538;13.820;2023-05-16T05:28:30;11.80;99.90
44843;DHT22;31884;52.538;13.820;2023-05-16T05:30:56;11.90;99.90
44843;DHT22;31884;52.538;13.820;2023-05-16T05:33:26;11.90;99.90
44843;DHT22;31884;52.538;13.820;2023-05-16T05:35:53;11.90;99.90
44843;DHT22;31884;52.538;13.820;2023-05-16T05:38:19;12.00;99.90
44843;DHT22;31884;52.538;13.820;2023-05-16T05:40:44;12.00;99.90
44843;DHT22;31884;52.538;13.820;2023-05-16T05:43:10;12.00;99.90
44843;DHT22;31884;52.538;13.820;2023-05-16T05:45:35;12.00;99.90
44843;DHT22;31884;52.538;13.820;2023-05-16T05:48:02;12.00;99.90
44843;DHT22;31884;52.538;13.820;2023-05-16T05:50:27;12.00;99.90
44843;DHT22;31884;52.538;13.820;2023-05-16T05:52:54;12.00;99.90
44843;DHT22;31884;52.538;13.820;2023-05-16T05:55:19;12.00;99.90
44843;DHT22;31884;52.538;13.820;2023-05-16T05:57:45;11.90;99.90
44843;DHT22;31884;52.538;13.820;2023-05-16T06:00:11;11.90;99.90
44843;DHT22;31884;52.538;13.820;2023-05-16T06:02:36;11.90;99.90
44843;DHT22;31884;52.538;13.820;2023-05-16T06:05:02;12.00;99.90
44843;DHT22;31884;52.538;13.820;2023-05-16T06:07:28;12.00;99.90
44843;DHT22;31884;52.538;13.820;2023-05-16T06:09:53;12.00;99.90
44843;DHT22;31884;52.538;13.820;2023-05-16T06:12:19;12.00;99.90
44843;DHT22;31884;52.538;13.820;2023-05-16T06:14:44;11.90;99.90
44843;DHT22;31884;52.538;13.820;2023-05-16T06:17:10;11.90;99.90
44843;DHT22;31884;52.538;13.820;2023-05-16T06:19:35;11.90;99.90
44843;DHT22;31884;52.538;13.820;2023-05-16T06:22:01;12.00;99.90
44843;DHT22;31884;52.538;13.820;2023-05-16T06:24:26;11.90;99.90
44843;DHT22;31884;52.538;13.820;2023-05-16T06:26:54;11.90;99.90
44843;DHT22;31884;52.538;13.820;2023-05-16T06:29:19;11.90;99.90
44843;DHT22;31884;52.538;13.820;2023-05-16T06:31:45;12.00;99.90
44843;DHT22;31884;52.538;13.820;2023-05-16T06:34:11;12.10;99.90
44843;DHT22;31884;52.538;13.820;2023-05-16T06:36:37;12.10;99.90
44843;DHT22;31884;52.538;13.820;2023-05-16T06:39:02;12.10;99.90
44843;DHT22;31884;52.538;13.820;2023-05-16T06:41:29;12.20;99.90
44843;DHT22;31884;52.538;13.820;2023-05-16T06:43:55;12.30;99.90
44843;DHT22;31884;52.538;13.820;2023-05-16T06:46:21;12.40;99.90
44843;DHT22;31884;52.538;13.820;2023-05-16T06:48:46;12.40;99.90
44843;DHT22;31884;52.538;13.820;2023-05-16T06:51:12;12.50;99.90
44843;DHT22;31884;52.538;13.820;2023-05-16T06:53:38;12.50;99.90
44843;DHT22;31884;52.538;13.820;2023-05-16T06:56:03;12.50;99.90
44843;DHT22;31884;52.538;13.820;2023-05-16T06:58:29;12.60;99.90
44843;DHT22;31884;52.538;13.820;2023-05-16T07:00:54;12.60;99.90
44843;DHT22;31884;52.538;13.820;2023-05-16T07:03:20;12.60;99.90
44843;DHT22;31884;52.538;13.820;2023-05-16T07:05:45;12.70;99.90
44843;DHT22;31884;52.538;13.820;2023-05-16T07:08:11;12.70;99.90
44843;DHT22;31884;52.538;13.820;2023-05-16T07:10:37;12.70;99.90
44843;DHT22;31884;52.538;13.820;2023-05-16T07:13:03;12.70;99.90
44843;DHT22;31884;52.538;13.820;2023-05-16T07:15:29;12.80;99.90
44843;DHT22;31884;52.538;13.820;2023-05-16T07:17:55;12.80;99.90
44843;DHT22;31884;52.538;13.820;2023-05-16T07:20:21;12.80;99.90
44843;DHT22;31884;52.538;13.820;2023-05-16T07:22:46;12.80;99.90
44843;DHT22;31884;52.538;13.820;2023-05-16T07:25:12;12.80;99.90
44843;DHT22;31884;52.538;13.820;2023-05-16T07:27:39;12.90;99.90
44843;DHT22;31884;52.538;13.820;2023-05-16T07:30:10;13.00;99.90
44843;DHT22;31884;52.538;13.820;2023-05-16T07:32:36;13.00;99.90
44843;DHT22;31884;52.538;13.820;2023-05-16T07:35:02;13.10;99.90
44843;DHT22;31884;52.538;13.820;2023-05-16T07:37:28;13.00;99.90
44843;DHT22;31884;52.538;13.820;2023-05-16T07:39:53;13.00;99.90
44843;DHT22;31884;52.538;13.820;2023-05-16T07:42:19;13.10;99.90
44843;DHT22;31884;52.538;13.820;2023-05-16T07:44:44;13.10;99.90
44843;DHT22;31884;52.538;13.820;2023-05-16T07:47:10;13.10;99.90
44843;DHT22;31884;52.538;13.820;2023-05-16T07:49:35;13.00;99.60
44843;DHT22;31884;52.538;13.820;2023-05-16T07:52:01;13.10;99.90
44843;DHT22;31884;52.538;13.820;2023-05-16T07:54:26;13.10;99.50
44843;DHT22;31884;52.538;13.820;2023-05-16T07:56:52;13.10;98.60
44843;DHT22;31884;52.538;13.820;2023-05-16T07:59:17;13.10;99.00
44843;DHT22;31884;52.538;13.820;2023-05-16T08:01:43;13.20;99.90
44843;DHT22;31884;52.538;13.820;2023-05-16T08:04:08;13.20;98.80
44843;DHT22;31884;52.538;13.820;2023-05-16T08:06:34;13.20;97.90
44843;DHT22;31884;52.538;13.820;2023-05-16T08:08:59;13.30;98.30
44843;DHT22;31884;52.538;13.820;2023-05-16T08:11:25;13.30;98.30
44843;DHT22;31884;52.538;13.820;2023-05-16T08:13:51;13.40;98.00
44843;DHT22;31884;52.538;13.820;2023-05-16T08:16:16;13.40;95.90
44843;DHT22;31884;52.538;13.820;2023-05-16T08:18:41;13.30;94.80
44843;DHT22;31884;52.538;13.820;2023-05-16T08:21:07;13.40;97.00
44843;DHT22;31884;52.538;13.820;2023-05-16T08:23:37;13.40;96.80
44843;DHT22;31884;52.538;13.820;2023-05-16T08:26:03;13.60;96.30
44843;DHT22;31884;52.538;13.820;2023-05-16T08:28:29;13.70;96.40
44843;DHT22;31884;52.538;13.820;2023-05-16T08:30:55;13.80;94.50
44843;DHT22;31884;52.538;13.820;2023-05-16T08:33:20;13.90;93.30
44843;DHT22;31884;52.538;13.820;2023-05-16T08:35:46;13.80;91.80
44843;DHT22;31884;52.538;13.820;2023-05-16T08:38:13;13.80;93.10
44843;DHT22;31884;52.538;13.820;2023-05-16T08:40:39;13.80;94.60
44843;DHT22;31884;52.538;13.820;2023-05-16T08:43:05;13.80;93.70
44843;DHT22;31884;52.538;13.820;2023-05-16T08:45:31;13.80;93.90
44843;DHT22;31884;52.538;13.820;2023-05-16T08:47:59;13.90;93.50
44843;DHT22;31884;52.538;13.820;2023-05-16T08:50:29;13.90;93.20
44843;DHT22;31884;52.538;13.820;2023-05-16T08:52:56;13.90;92.00
44843;DHT22;31884;52.538;13.820;2023-05-16T08:55:22;14.00;93.00
44843;DHT22;31884;52.538;13.820;2023-05-16T08:57:49;14.00;92.60
44843;DHT22;31884;52.538;13.820;2023-05-16T09:00:16;14.10;92.40
44843;DHT22;31884;52.538;13.820;2023-05-16T09:02:43;14.20;88.60
44843;DHT22;31884;52.538;13.820;2023-05-16T09:05:14;14.30;88.80
44843;DHT22;31884;52.538;13.820;2023-05-16T09:07:41;14.30;90.30
44843;DHT22;31884;52.538;13.820;2023-05-16T09:10:07;14.40;90.30
44843;DHT22;31884;52.538;13.820;2023-05-16T09:12:34;14.50;90.50
44843;DHT22;31884;52.538;13.820;2023-05-16T09:15:01;14.50;84.70
44843;DHT22;31884;52.538;13.820;2023-05-16T09:17:37;14.40;82.20
44843;DHT22;31884;52.538;13.820;2023-05-16T09:20:17;14.40;81.70
44843;DHT22;31884;52.538;13.820;2023-05-16T09:22:57;14.40;80.00
44843;DHT22;31884;52.538;13.820;2023-05-16T09:25:25;14.30;79.20
44843;DHT22;31884;52.538;13.820;2023-05-16T09:27:54;14.30;82.30
44843;DHT22;31884;52.538;13.820;2023-05-16T09:30:28;14.20;82.00
44843;DHT22;31884;52.538;13.820;2023-05-16T09:32:55;14.10;79.30
44843;DHT22;31884;52.538;13.820;2023-05-16T09:35:21;14.10;83.70
44843;DHT22;31884;52.538;13.820;2023-05-16T09:37:49;14.10;81.90
44843;DHT22;31884;52.538;13.820;2023-05-16T09:40:15;14.00;80.60
44843;DHT22;31884;52.538;13.820;2023-05-16T09:42:41;14.00;83.90
44843;DHT22;31884;52.538;13.820;2023-05-16T09:45:11;14.10;82.90
44843;DHT22;31884;52.538;13.820;2023-05-16T09:47:38;14.10;80.90
44843;DHT22;31884;52.538;13.820;2023-05-16T09:50:13;14.10;81.90
44843;DHT22;31884;52.538;13.820;2023-05-16T09:52:39;14.20;80.10
44843;DHT22;31884;52.538;13.820;2023-05-16T09:55:07;14.20;81.10
44843;DHT22;31884;52.538;13.820;2023-05-16T09:57:32;14.30;78.30
44843;DHT22;31884;52.538;13.820;2023-05-16T10:00:08;14.40;79.60
44843;DHT22;31884;52.538;13.820;2023-05-16T10:02:35;14.50;77.50
44843;DHT22;31884;52.538;13.820;2023-05-16T10:05:01;14.60;77.30
44843;DHT22;31884;52.538;13.820;2023-05-16T10:07:27;14.70;77.30
44843;DHT22;31884;52.538;13.820;2023-05-16T10:09:54;14.80;73.60
44843;DHT22;31884;52.538;13.820;2023-05-16T10:12:28;14.80;75.00
44843;DHT22;31884;52.538;13.820;2023-05-16T10:14:54;14.80;72.30
44843;DHT22;31884;52.538;13.820;2023-05-16T10:17:21;15.00;72.90
44843;DHT22;31884;52.538;13.820;2023-05-16T10:19:47;15.00;71.50
44843;DHT22;31884;52.538;13.820;2023-05-16T10:22:14;15.20;71.80
44843;DHT22;31884;52.538;13.820;2023-05-16T10:24:53;15.30;70.20
44843;DHT22;31884;52.538;13.820;2023-05-16T10:27:23;15.40;72.10
44843;DHT22;31884;52.538;13.820;2023-05-16T10:29:50;15.60;71.70
44843;DHT22;31884;52.538;13.820;2023-05-16T10:32:17;15.80;71.70
44843;DHT22;31884;52.538;13.820;2023-05-16T10:34:44;16.00;72.30
44843;DHT22;31884;52.538;13.820;2023-05-16T10:37:10;16.10;70.30
44843;DHT22;31884;52.538;13.820;2023-05-16T10:39:37;16.10;68.00
44843;DHT22;31884;52.538;13.820;2023-05-16T10:42:05;16.00;66.00
44843;DHT22;31884;52.538;13.820;2023-05-16T10:44:32;16.00;64.30
44843;DHT22;31884;52.538;13.820;2023-05-16T10:47:00;15.80;64.10
44843;DHT22;31884;52.538;13.820;2023-05-16T10:49:29;15.80;64.20
44843;DHT22;31884;52.538;13.820;2023-05-16T10:52:09;15.60;62.60
44843;DHT22;31884;52.538;13.820;2023-05-16T10:54:36;15.60;61.20
44843;DHT22;31884;52.538;13.820;2023-05-16T10:57:04;15.70;64.60
44843;DHT22;31884;52.538;13.820;2023-05-16T10:59:39;15.70;63.10
44843;DHT22;31884;52.538;13.820;2023-05-16T11:02:30;15.80;63.50
44843;DHT22;31884;52.538;13.820;2023-05-16T11:04:59;15.90;62.10
44843;DHT22;31884;52.538;13.820;2023-05-16T11:07:33;15.90;63.70
44843;DHT22;31884;52.538;13.820;2023-05-16T11:10:06;16.00;61.60
44843;DHT22;31884;52.538;13.820;2023-05-16T11:12:51;16.00;64.70
44843;DHT22;31884;52.538;13.820;2023-05-16T11:15:25;16.00;61.90
44843;DHT22;31884;52.538;13.820;2023-05-16T11:18:05;15.90;63.90
44843;DHT22;31884;52.538;13.820;2023-05-16T11:20:36;16.00;62.50
44843;DHT22;31884;52.538;13.820;2023-05-16T11:25:44;15.90;62.00
44843;DHT22;31884;52.538;13.820;2023-05-16T11:28:12;15.80;64.60
44843;DHT22;31884;52.538;13.820;2023-05-16T11:30:46;15.80;63.10
44843;DHT22;31884;52.538;13.820;2023-05-16T11:33:13;15.60;63.70
44843;DHT22;31884;52.538;13.820;2023-05-16T11:35:39;15.60;63.60
44843;DHT22;31884;52.538;13.820;2023-05-16T11:38:04;15.50;63.90
44843;DHT22;31884;52.538;13.820;2023-05-16T11:40:30;15.50;64.60
44843;DHT22;31884;52.538;13.820;2023-05-16T11:42:59;15.50;65.00
44843;DHT22;31884;52.538;13.820;2023-05-16T11:45:25;15.50;64.30
44843;DHT22;31884;52.538;13.820;2023-05-16T11:47:50;15.40;65.30
44843;DHT22;31884;52.538;13.820;2023-05-16T11:50:19;15.30;65.50
44843;DHT22;31884;52.538;13.820;2023-05-16T11:52:47;15.40;65.60
44843;DHT22;31884;52.538;13.820;2023-05-16T11:55:13;15.30;65.20
44843;DHT22;31884;52.538;13.820;2023-05-16T11:57:40;15.30;64.80
44843;DHT22;31884;52.538;13.820;2023-05-16T12:00:21;15.30;66.10
44843;DHT22;31884;52.538;13.820;2023-05-16T12:02:49;15.40;65.00
44843;DHT22;31884;52.538;13.820;2023-05-16T12:05:16;15.40;65.40
44843;DHT22;31884;52.538;13.820;2023-05-16T12:07:43;15.50;65.00
44843;DHT22;31884;52.538;13.820;2023-05-16T12:10:11;15.70;63.50
44843;DHT22;31884;52.538;13.820;2023-05-16T12:12:38;15.80;64.00
44843;DHT22;31884;52.538;13.820;2023-05-16T12:15:06;15.90;63.90
44843;DHT22;31884;52.538;13.820;2023-05-16T12:17:36;16.00;61.70
44843;DHT22;31884;52.538;13.820;2023-05-16T12:20:03;16.00;61.50
44843;DHT22;31884;52.538;13.820;2023-05-16T12:22:38;15.90;60.70
44843;DHT22;31884;52.538;13.820;2023-05-16T12:25:29;15.90;62.00
44843;DHT22;31884;52.538;13.820;2023-05-16T12:28:01;15.90;59.90
44843;DHT22;31884;52.538;13.820;2023-05-16T12:30:29;15.80;62.20
44843;DHT22;31884;52.538;13.820;2023-05-16T12:33:15;15.80;62.70
44843;DHT22;31884;52.538;13.820;2023-05-16T12:35:43;15.80;59.10
44843;DHT22;31884;52.538;13.820;2023-05-16T12:38:11;15.70;59.10
44843;DHT22;31884;52.538;13.820;2023-05-16T12:40:38;15.60;60.20
44843;DHT22;31884;52.538;13.820;2023-05-16T12:43:21;15.60;60.90
44843;DHT22;31884;52.538;13.820;2023-05-16T12:45:54;15.70;59.70
44843;DHT22;31884;52.538;13.820;2023-05-16T12:48:28;15.70;57.60
44843;DHT22;31884;52.538;13.820;2023-05-16T12:50:56;15.70;58.70
44843;DHT22;31884;52.538;13.820;2023-05-16T12:53:22;15.70;58.50
44843;DHT22;31884;52.538;13.820;2023-05-16T12:55:47;15.80;58.90
44843;DHT22;31884;52.538;13.820;2023-05-16T12:58:13;16.00;59.00
44843;DHT22;31884;52.538;13.820;2023-05-16T13:00:38;16.20;57.30
44843;DHT22;31884;52.538;13.820;2023-05-16T13:03:05;16.40;56.60
44843;DHT22;31884;52.538;13.820;2023-05-16T13:05:31;16.50;56.30
44843;DHT22;31884;52.538;13.820;2023-05-16T13:07:57;16.70;55.40
44843;DHT22;31884;52.538;13.820;2023-05-16T13:10:22;16.90;54.80
44843;DHT22;31884;52.538;13.820;2023-05-16T13:12:50;17.20;54.10
44843;DHT22;31884;52.538;13.820;2023-05-16T13:15:15;17.40;53.40
44843;DHT22;31884;52.538;13.820;2023-05-16T13:17:42;17.40;52.10
44843;DHT22;31884;52.538;13.820;2023-05-16T13:20:11;17.40;52.60
44843;DHT22;31884;52.538;13.820;2023-05-16T13:22:39;17.40;52.00
44843;DHT22;31884;52.538;13.820;2023-05-16T13:25:05;17.40;51.70
44843;DHT22;31884;52.538;13.820;2023-05-16T13:27:32;17.40;52.10
44843;DHT22;31884;52.538;13.820;2023-05-16T13:29:58;17.30;51.20
44843;DHT22;31884;52.538;13.820;2023-05-16T13:32:24;17.20;49.90
44843;DHT22;31884;52.538;13.820;2023-05-16T13:34:50;17.30;50.70
44843;DHT22;31884;52.538;13.820;2023-05-16T13:37:16;17.40;51.00
44843;DHT22;31884;52.538;13.820;2023-05-16T13:39:41;17.50;49.80
44843;DHT22;31884;52.538;13.820;2023-05-16T13:42:07;17.70;50.20
44843;DHT22;31884;52.538;13.820;2023-05-16T13:44:33;17.80;49.50
44843;DHT22;31884;52.538;13.820;2023-05-16T13:46:59;17.90;48.00
44843;DHT22;31884;52.538;13.820;2023-05-16T13:49:24;17.80;48.40
44843;DHT22;31884;52.538;13.820;2023-05-16T13:51:50;17.70;48.10
44843;DHT22;31884;52.538;13.820;2023-05-16T13:54:16;17.70;48.00
44843;DHT22;31884;52.538;13.820;2023-05-16T13:56:42;17.50;46.90
44843;DHT22;31884;52.538;13.820;2023-05-16T13:59:08;17.40;46.00
44843;DHT22;31884;52.538;13.820;2023-05-16T14:01:33;17.20;47.20
44843;DHT22;31884;52.538;13.820;2023-05-16T14:04:00;17.20;46.30
44843;DHT22;31884;52.538;13.820;2023-05-16T14:06:26;17.10;45.20
44843;DHT22;31884;52.538;13.820;2023-05-16T14:08:52;17.00;45.80
44843;DHT22;31884;52.538;13.820;2023-05-16T14:11:18;17.00;46.30
44843;DHT22;31884;52.538;13.820;2023-05-16T14:13:44;17.00;46.00
44843;DHT22;31884;52.538;13.820;2023-05-16T14:16:10;17.00;45.70
44843;DHT22;31884;52.538;13.820;2023-05-16T14:18:35;17.00;45.20
44843;DHT22;31884;52.538;13.820;2023-05-16T14:21:01;17.00;44.50
44843;DHT22;31884;52.538;13.820;2023-05-16T14:23:26;17.00;44.30
44843;DHT22;31884;52.538;13.820;2023-05-16T14:25:52;17.00;44.10
44843;DHT22;31884;52.538;13.820;2023-05-16T14:28:18;17.00;43.00
44843;DHT22;31884;52.538;13.820;2023-05-16T14:30:43;17.00;42.10
44843;DHT22;31884;52.538;13.820;2023-05-16T14:33:09;17.20;40.60
44843;DHT22;31884;52.538;13.820;2023-05-16T14:35:34;17.30;41.90
44843;DHT22;31884;52.538;13.820;2023-05-16T14:38:02;17.30;39.80
44843;DHT22;31884;52.538;13.820;2023-05-16T14:40:28;17.40;40.00
44843;DHT22;31884;52.538;13.820;2023-05-16T14:42:54;17.40;38.50
44843;DHT22;31884;52.538;13.820;2023-05-16T14:45:19;17.30;35.30
44843;DHT22;31884;52.538;13.820;2023-05-16T14:47:45;17.30;33.00
44843;DHT22;31884;52.538;13.820;2023-05-16T14:50:10;17.20;35.20
44843;DHT22;31884;52.538;13.820;2023-05-16T14:52:38;17.30;35.80
44843;DHT22;31884;52.538;13.820;2023-05-16T14:55:04;17.30;35.30
44843;DHT22;31884;52.538;13.820;2023-05-16T14:57:30;17.30;35.60
44843;DHT22;31884;52.538;13.820;2023-05-16T14:59:56;17.50;35.20
44843;DHT22;31884;52.538;13.820;2023-05-16T15:02:22;17.60;34.20
44843;DHT22;31884;52.538;13.820;2023-05-16T15:04:48;17.60;32.50
44843;DHT22;31884;52.538;13.820;2023-05-16T15:07:14;17.60;33.10
44843;DHT22;31884;52.538;13.820;2023-05-16T15:09:39;17.60;32.70
44843;DHT22;31884;52.538;13.820;2023-05-16T15:12:05;17.60;32.30
44843;DHT22;31884;52.538;13.820;2023-05-16T15:14:32;17.70;32.30
44843;DHT22;31884;52.538;13.820;2023-05-16T15:16:57;17.60;30.90
44843;DHT22;31884;52.538;13.820;2023-05-16T15:19:23;17.60;31.20
44843;DHT22;31884;52.538;13.820;2023-05-16T15:21:48;17.60;30.70
44843;DHT22;31884;52.538;13.820;2023-05-16T15:24:14;17.70;30.10
44843;DHT22;31884;52.538;13.820;2023-05-16T15:26:40;17.70;28.70
44843;DHT22;31884;52.538;13.820;2023-05-16T15:29:05;17.70;29.10